• Join FlightAware (Why Join?)
  • Login
  • US Flag 
01:44AM EDT


 

Airport Tracker/Info


-or-


 

Live Flight TrackerFlight Track Log ✈ SWA3228 ✈ 08-May-2013 ✈ KMDW - KCLE

Flight Track Log - Related Links

Times and Time Zones

All times are in EDT time to prevent confusion due to time zone crossing. See the SWA3228 flight status page for this flight to view local times or setup timezone preferences in your user account.

Time Position Orientation Groundspeed Altitude Reporting Facility
EDT Latitude Longitude Course Direction KTS MPH feet Rate Location/Type
12:48PM 41.7964 -87.5653 99° East 247 284 10,500  Level Chicago Center
12:49PM 41.7844 -87.4161 96° East 329 379 14,800 2,160 Climbing Chicago Center
12:50PM 41.7761 -87.2839 95° East 349 402 15,000 60 Climbing Chicago Center
12:51PM 41.7678 -87.1564 95° East 348 400 15,000 1,380 Level Chicago Center
12:52PM 41.7600 -87.0289 95° East 345 397 17,900 3,120 Climbing Chicago Center
12:53PM 41.7628 -86.9058 88° East 337 388 21,500 3,540 Climbing Chicago Center
12:54PM 41.7658 -86.7439 88° East 358 412 25,300 2,640 Climbing Chicago Center
12:55PM 41.7644 -86.6231 91° East 378 435 27,000 780 Climbing Chicago Center
12:56PM 41.7650 -86.4353 90° East 415 478 27,000  Level Chicago Center
12:57PM 41.7694 -86.2806 88° East 416 479 27,000  Level Chicago Center
12:58PM 41.7881 -86.1269 81° East 416 479 27,000  Level Chicago Center
12:59PM 41.8064 -85.9722 81° East 419 482 27,000 660 Level Chicago Center
01:01PM 41.8228 -85.8181 82° East 418 481 28,400 960 Climbing Chicago Center
01:02PM 41.8397 -85.6606 82° East 422 486 29,100 1,800 Climbing Chicago Center
01:03PM 41.8572 -85.5028 81° East 422 486 32,200 1,860 Climbing Chicago Center
01:04PM 41.8731 -85.3494 82° East 414 476 33,000 360 Climbing Chicago Center
01:05PM 41.8911 -85.1694 82° East 405 466 33,000  Level Chicago Center
01:06PM 41.9067 -85.0206 82° East 402 463 33,000  Level Chicago Center
01:07PM 41.9208 -84.8675 83° East 410 472 33,000 -120 Level Chicago Center
01:08PM 41.9339 -84.7175 83° East 407 468 32,800 -540 Descending Chicago Center
01:09PM 41.9489 -84.5625 83° East 417 480 32,000 -900 Descending Chicago Center
01:10PM 41.9744 -84.3764 79° East 415 478 31,000 -480 Descending Cleveland Center
01:11PM 41.9789 -84.2342 88° East 415 478 31,000  Level Cleveland Center
01:12PM 41.9900 -84.0783 84° East 420 483 31,000  Level Cleveland Center
01:13PM 42.0050 -83.9225 83° East 420 483 31,000 -840 Level Cleveland Center
01:14PM 42.0200 -83.7639 83° East 425 489 29,400 -2,220 Descending Cleveland Center
01:15PM 42.0325 -83.6136 84° East 415 478 26,600 -2,700 Descending Cleveland Center
01:16PM 42.0450 -83.4464 84° East 404 465 24,000 -1,320 Descending Cleveland Center
01:17PM 42.0319 -83.3061 97° East 392 451 24,000  Level Cleveland Center
01:18PM 42.0183 -83.1714 98° East 387 445 24,000  Level Cleveland Center
01:19PM 42.0028 -83.0281 98° East 392 451 24,000 -1,020 Level Cleveland Center
01:20PM 41.9908 -82.8936 97° East 387 445 22,000 -2,340 Descending Cleveland Center
01:20PM 41.9878 -82.8375 94° East 369 425 20,900 -2,040 Descending Cleveland Center
01:21PM 41.9767 -82.7617 101° East 369 425 20,000 -1,560 Descending Cleveland Center
01:21PM 41.9697 -82.6889 97° East 353 406 19,200 -1,620 Descending Cleveland Center
01:22PM 41.9647 -82.6300 96° East 357 411 18,400 -2,220 Descending Cleveland Center
01:22PM 41.9553 -82.5656 101° East 343 395 17,000 -2,340 Descending Cleveland Center
01:23PM 41.9458 -82.5094 103° East 344 396 16,100 -2,400 Descending Cleveland Center
01:23PM 41.9239 -82.4475 115° Southeast 338 389 14,600 -2,340 Descending Cleveland Center
01:24PM 41.9081 -82.3939 112° Southeast 338 389 13,800 -2,160 Descending Cleveland Center
01:24PM 41.8842 -82.3208 114° Southeast 333 383 12,200 -2,340 Descending Cleveland Center
01:25PM 41.8722 -82.2814 112° Southeast 333 383 11,500 -2,100 Descending Cleveland Center
01:25PM 41.8483 -82.2083 114° Southeast 330 380 10,100 -1,500 Descending Cleveland Center
01:26PM 41.8364 -82.1689 112° Southeast 328 377 10,000 -120 Descending Cleveland Center
01:26PM 41.7953 -82.1289 144° Southeast 322 371 10,000  Level Cleveland Center
01:27PM 41.7622 -82.1003 147° Southeast 315 362 10,000  Level Cleveland Center
01:27PM 41.7211 -82.0686 150° Southeast 313 360 10,000  Level Cleveland Center
01:28PM 41.6900 -82.0431 148° Southeast 308 354 10,000 -900 Level Cleveland Center
01:28PM 41.6406 -82.0086 152° Southeast 282 325 9,000 -1,500 Descending Cleveland Center
01:29PM 41.6200 -81.9886 144° Southeast 290 334 8,500 -1,020 Descending Cleveland Center
01:29PM 41.5722 -81.9542 152° Southeast 276 318 8,000 -600 Descending Cleveland Center
01:30PM 41.5558 -81.9400 147° Southeast 278 320 7,900 -300 Descending Cleveland Center
01:30PM 41.5206 -81.9172 154° Southeast 262 302 7,800 -360 Descending Cleveland Center
01:31PM 41.4517 -81.9322 189° South 288 331 7,400 -600 Descending Cleveland Center
01:32PM 41.4069 -82.0061 231° Southwest 252 290 6,700 -720 Descending Cleveland Center
01:33PM 41.3686 -82.0744 233° Southwest 228 262 6,000 -1,020 Descending Cleveland Center
01:34PM 41.3167 -82.0733 179° South 202 232 4,600 -1,140 Descending Cleveland Center
01:35PM 41.3194 -82.0069 87° East 180 207 3,700 -1,140 Descending Cleveland Center
01:36PM 41.3472 -81.9606 51° Northeast 155 178 2,400 -1,080 Descending Cleveland Center
01:37PM 41.3683 -81.9222 54° Northeast 140 161 1,700 -780 Descending Cleveland Center
01:38PM 41.3939 -81.8814 50° Northeast 139 160 1,000 -720 Descending Cleveland Center
01:40PM 41.4000 -81.8500 78° East  Level FlightAware Approximate